createdAt,value
2022-10-31T00:01:10.839Z,13.40
2022-10-31T00:03:38.614Z,13.40
2022-10-31T00:06:06.337Z,13.40
2022-10-31T00:08:34.115Z,13.40
2022-10-31T00:11:01.904Z,13.40
2022-10-31T00:13:29.616Z,13.40
2022-10-31T00:15:57.345Z,13.30
2022-10-31T00:18:26.445Z,13.40
2022-10-31T00:21:00.098Z,13.40
2022-10-31T00:23:27.856Z,13.40
2022-10-31T00:25:55.517Z,13.50
2022-10-31T00:28:23.180Z,13.50
2022-10-31T00:30:50.868Z,13.50
2022-10-31T00:33:18.546Z,13.50
2022-10-31T00:35:52.299Z,13.60
2022-10-31T00:38:19.976Z,13.60
2022-10-31T00:40:47.712Z,13.60
2022-10-31T00:43:15.408Z,13.70
2022-10-31T00:45:43.157Z,13.70
2022-10-31T00:48:10.841Z,13.70
2022-10-31T00:50:40.696Z,13.70
2022-10-31T00:53:09.942Z,13.70
2022-10-31T00:55:37.600Z,13.70
2022-10-31T00:58:05.609Z,13.60
2022-10-31T01:00:33.400Z,13.70
2022-10-31T01:03:01.819Z,13.60
2022-10-31T01:05:30.021Z,13.70
2022-10-31T01:07:57.712Z,13.60
2022-10-31T01:10:26.721Z,13.70
2022-10-31T01:12:54.418Z,13.60
2022-10-31T01:15:23.673Z,13.70
2022-10-31T01:17:51.373Z,13.60
2022-10-31T01:20:19.503Z,13.50
2022-10-31T01:22:47.204Z,13.50
2022-10-31T01:25:14.904Z,13.50
2022-10-31T01:27:43.939Z,13.40
2022-10-31T01:30:12.182Z,13.40
2022-10-31T01:32:39.854Z,13.30
2022-10-31T01:35:07.844Z,13.20
2022-10-31T01:37:35.531Z,13.10
2022-10-31T01:40:03.193Z,13.10
2022-10-31T01:42:30.856Z,13.20
2022-10-31T01:45:01.102Z,13.20
2022-10-31T01:47:35.000Z,13.30
2022-10-31T01:50:04.555Z,13.30
2022-10-31T01:52:34.284Z,13.30
2022-10-31T01:55:04.672Z,13.40
2022-10-31T01:57:33.439Z,13.40
2022-10-31T02:00:03.564Z,13.40
2022-10-31T02:02:32.143Z,13.40
2022-10-31T02:05:01.702Z,13.40
2022-10-31T02:07:32.398Z,13.40
2022-10-31T02:10:00.597Z,13.30
2022-10-31T02:12:28.471Z,13.30
2022-10-31T02:14:56.300Z,13.30
2022-10-31T02:17:25.378Z,13.30
2022-10-31T02:19:56.850Z,13.20
2022-10-31T02:22:26.942Z,13.20
2022-10-31T02:25:10.494Z,13.20
2022-10-31T02:27:53.768Z,13.20
2022-10-31T02:30:23.789Z,13.30
2022-10-31T02:32:56.766Z,13.30
2022-10-31T02:35:31.420Z,13.30
2022-10-31T02:38:02.136Z,13.30
2022-10-31T02:40:32.772Z,13.40
2022-10-31T02:43:04.608Z,13.30
2022-10-31T02:45:35.551Z,13.30
2022-10-31T02:48:07.138Z,13.20
2022-10-31T02:50:36.076Z,13.20
2022-10-31T02:53:04.267Z,13.20
2022-10-31T02:55:46.522Z,13.20
2022-10-31T02:58:15.774Z,13.10
2022-10-31T03:00:49.742Z,13.10
2022-10-31T03:03:22.415Z,13.10
2022-10-31T03:05:55.181Z,13.10
2022-10-31T03:08:25.386Z,13.00
2022-10-31T03:10:56.489Z,13.00
2022-10-31T03:13:31.551Z,13.10
2022-10-31T03:16:04.032Z,13.10
2022-10-31T03:18:34.817Z,13.20
2022-10-31T03:21:05.812Z,13.20
2022-10-31T03:23:34.106Z,13.20
2022-10-31T03:26:03.053Z,13.10
2022-10-31T03:28:32.692Z,13.10
2022-10-31T03:31:03.470Z,12.90
2022-10-31T03:33:37.261Z,12.90
2022-10-31T03:36:06.613Z,13.00
2022-10-31T03:38:36.569Z,12.80
2022-10-31T03:41:05.846Z,12.70
2022-10-31T03:43:34.898Z,12.60
2022-10-31T03:46:02.676Z,12.50
2022-10-31T03:48:30.564Z,12.30
2022-10-31T03:51:03.824Z,12.20
2022-10-31T03:53:34.226Z,12.10
2022-10-31T03:56:04.084Z,12.10
2022-10-31T03:58:34.197Z,12.00
2022-10-31T04:01:03.717Z,11.90
2022-10-31T04:03:33.152Z,12.10
2022-10-31T04:06:04.792Z,12.00
2022-10-31T04:08:34.075Z,12.00
2022-10-31T04:11:03.522Z,12.10
2022-10-31T04:13:32.555Z,12.10
2022-10-31T04:16:00.552Z,12.30
2022-10-31T04:18:28.457Z,12.40
2022-10-31T04:21:03.122Z,12.50
2022-10-31T04:23:30.864Z,12.60
2022-10-31T04:25:58.625Z,12.70
2022-10-31T04:28:26.299Z,12.80
2022-10-31T04:30:54.134Z,12.90
2022-10-31T04:33:21.838Z,12.90
2022-10-31T04:35:49.705Z,12.90
2022-10-31T04:38:18.786Z,12.90
2022-10-31T04:40:46.885Z,12.80
2022-10-31T04:43:14.732Z,12.80
2022-10-31T04:45:42.436Z,12.80
2022-10-31T04:48:10.111Z,12.80
2022-10-31T04:50:38.062Z,12.80
2022-10-31T04:53:05.873Z,12.80
2022-10-31T04:55:34.886Z,12.60
2022-10-31T04:58:02.979Z,12.50
2022-10-31T05:00:31.217Z,12.40
2022-10-31T05:02:59.928Z,12.10
2022-10-31T05:05:28.770Z,12.00
2022-10-31T05:07:56.433Z,11.90
2022-10-31T05:10:25.390Z,11.80
2022-10-31T05:12:55.477Z,11.80
2022-10-31T05:15:23.890Z,11.70
2022-10-31T05:17:51.882Z,11.70
2022-10-31T05:20:20.615Z,11.70
2022-10-31T05:22:49.368Z,11.60
2022-10-31T05:25:17.487Z,11.70
2022-10-31T05:27:45.876Z,11.60
2022-10-31T05:30:16.415Z,11.60
2022-10-31T05:32:44.934Z,11.60
2022-10-31T05:35:13.713Z,11.70
2022-10-31T05:37:41.652Z,11.80
2022-10-31T05:40:10.783Z,11.70
2022-10-31T05:42:40.394Z,11.70
2022-10-31T05:45:08.965Z,11.70
2022-10-31T05:47:37.999Z,11.80
2022-10-31T05:50:06.414Z,12.00
2022-10-31T05:52:34.142Z,11.90
2022-10-31T05:55:01.831Z,11.90
2022-10-31T05:57:29.971Z,11.90
2022-10-31T05:59:57.633Z,11.90
2022-10-31T06:02:26.080Z,11.90
2022-10-31T06:04:55.244Z,12.00
2022-10-31T06:07:22.945Z,12.10
2022-10-31T06:09:50.616Z,12.10
2022-10-31T06:12:18.308Z,12.00
2022-10-31T06:14:45.960Z,12.00
2022-10-31T06:17:13.670Z,12.10
2022-10-31T06:19:41.437Z,12.10
2022-10-31T06:22:12.450Z,12.10
2022-10-31T06:24:40.116Z,12.10
2022-10-31T06:27:07.847Z,12.10
2022-10-31T06:29:35.514Z,12.20
2022-10-31T06:32:03.361Z,12.20
2022-10-31T06:34:31.111Z,12.10
2022-10-31T06:36:58.778Z,12.20
2022-10-31T06:39:27.761Z,12.30
2022-10-31T06:41:55.436Z,12.40
2022-10-31T06:44:23.159Z,12.60
2022-10-31T06:46:50.863Z,12.60
2022-10-31T06:49:18.563Z,12.80
2022-10-31T06:51:49.018Z,12.80
2022-10-31T06:54:16.835Z,12.80
2022-10-31T06:56:47.308Z,12.80
2022-10-31T06:59:15.074Z,12.90
2022-10-31T07:01:42.840Z,13.10
2022-10-31T07:04:11.014Z,13.20
2022-10-31T07:06:38.817Z,13.30
2022-10-31T07:09:06.923Z,13.30
2022-10-31T07:11:34.615Z,13.30
2022-10-31T07:14:03.669Z,13.30
2022-10-31T07:16:31.344Z,13.40
2022-10-31T07:18:59.174Z,13.40
2022-10-31T07:21:26.857Z,13.50
2022-10-31T07:23:55.011Z,13.50
2022-10-31T07:26:22.723Z,13.50
2022-10-31T07:28:50.557Z,13.60
2022-10-31T07:31:19.554Z,13.60
2022-10-31T07:33:47.229Z,13.60
2022-10-31T07:36:14.950Z,13.60
2022-10-31T07:38:42.616Z,13.70
2022-10-31T07:41:10.707Z,13.80
2022-10-31T07:43:38.379Z,13.90
2022-10-31T07:46:06.165Z,14.00
2022-10-31T07:48:35.199Z,14.20
2022-10-31T07:51:02.872Z,14.20
2022-10-31T07:53:30.553Z,14.30
2022-10-31T07:55:58.234Z,14.40
2022-10-31T07:58:26.025Z,14.40
2022-10-31T08:00:53.825Z,14.50
2022-10-31T08:03:21.580Z,14.60
2022-10-31T08:05:50.611Z,14.60
2022-10-31T08:08:18.415Z,14.60
2022-10-31T08:10:46.301Z,14.60
2022-10-31T08:13:14.975Z,14.70
2022-10-31T08:15:43.187Z,14.70
2022-10-31T08:18:13.260Z,14.90
2022-10-31T08:20:41.203Z,15.00
2022-10-31T08:23:10.709Z,15.10
2022-10-31T08:25:39.074Z,15.20
2022-10-31T08:28:07.370Z,15.40
2022-10-31T08:30:36.128Z,15.40
2022-10-31T08:33:04.260Z,15.50
2022-10-31T08:35:31.996Z,15.40
2022-10-31T08:38:00.284Z,15.30
2022-10-31T08:40:31.158Z,15.00
2022-10-31T08:42:59.677Z,15.10
2022-10-31T08:45:27.437Z,15.20
2022-10-31T08:47:59.030Z,15.10
2022-10-31T08:50:27.101Z,15.10
2022-10-31T08:53:09.760Z,15.30
2022-10-31T08:55:39.161Z,15.50
2022-10-31T08:58:07.547Z,15.70
2022-10-31T09:00:35.620Z,15.90
2022-10-31T09:03:04.273Z,16.00
2022-10-31T09:05:32.423Z,16.10
2022-10-31T09:08:01.142Z,16.10
2022-10-31T09:10:30.094Z,16.00
2022-10-31T09:12:59.830Z,16.00
2022-10-31T09:15:27.990Z,16.10
2022-10-31T09:17:55.712Z,16.10
2022-10-31T09:20:23.738Z,16.10
2022-10-31T09:22:57.346Z,16.10
2022-10-31T09:25:25.118Z,16.30
2022-10-31T09:27:52.764Z,16.20
2022-10-31T09:30:21.913Z,16.30
2022-10-31T09:32:49.785Z,16.30
2022-10-31T09:35:19.281Z,16.20
2022-10-31T09:37:49.465Z,16.20
2022-10-31T09:40:17.212Z,16.30
2022-10-31T09:42:50.487Z,16.40
2022-10-31T09:45:20.298Z,16.50
2022-10-31T09:47:54.102Z,16.50
2022-10-31T09:50:23.775Z,16.60
2022-10-31T09:52:56.107Z,16.70
2022-10-31T09:55:28.554Z,16.70
2022-10-31T09:57:56.271Z,16.70
2022-10-31T10:00:24.257Z,16.60
2022-10-31T10:02:55.346Z,16.60
2022-10-31T10:05:24.190Z,16.70
2022-10-31T10:07:57.184Z,16.70
2022-10-31T10:10:28.486Z,16.70
2022-10-31T10:13:09.364Z,16.70
2022-10-31T10:15:50.645Z,16.70
2022-10-31T10:18:25.675Z,16.60
2022-10-31T10:20:59.015Z,16.80
2022-10-31T10:23:33.247Z,16.90
2022-10-31T10:26:08.730Z,17.00
2022-10-31T10:28:40.860Z,17.00
2022-10-31T10:31:10.204Z,16.90
2022-10-31T10:33:41.614Z,16.90
2022-10-31T10:36:12.480Z,16.90
2022-10-31T10:38:40.996Z,17.00
2022-10-31T10:41:15.095Z,16.90
2022-10-31T10:43:42.780Z,17.00
2022-10-31T10:46:35.793Z,17.10
2022-10-31T10:49:10.624Z,17.20
2022-10-31T10:51:58.171Z,17.30
2022-10-31T10:54:41.265Z,17.50
2022-10-31T10:57:13.939Z,17.60
2022-10-31T10:59:41.638Z,17.60
2022-10-31T11:02:19.439Z,17.70
2022-10-31T11:04:51.428Z,17.80
2022-10-31T11:07:19.336Z,18.00
2022-10-31T11:09:47.733Z,18.10
2022-10-31T11:12:19.703Z,18.20
2022-10-31T11:14:48.751Z,18.40
2022-10-31T11:17:27.256Z,18.50
2022-10-31T11:20:04.392Z,18.50
2022-10-31T11:22:32.089Z,18.50
2022-10-31T11:24:59.756Z,18.40
2022-10-31T11:27:28.065Z,18.60
2022-10-31T11:30:05.514Z,18.70
2022-10-31T11:32:33.492Z,18.90
2022-10-31T11:35:02.338Z,19.10
2022-10-31T11:37:36.197Z,19.10
2022-10-31T11:40:06.008Z,19.30
2022-10-31T11:42:39.108Z,19.50
2022-10-31T11:45:09.568Z,19.60
2022-10-31T11:47:37.740Z,19.80
2022-10-31T11:50:12.063Z,19.90
2022-10-31T11:52:42.032Z,19.90
2022-10-31T11:55:16.964Z,19.90
2022-10-31T11:57:45.909Z,20.00
2022-10-31T12:00:23.211Z,19.80
2022-10-31T12:02:51.017Z,19.80
2022-10-31T12:05:20.908Z,19.70
2022-10-31T12:07:50.234Z,19.70
2022-10-31T12:10:19.597Z,19.70
2022-10-31T12:12:54.364Z,19.70
2022-10-31T12:15:29.636Z,19.60
2022-10-31T12:18:02.586Z,19.60
2022-10-31T12:20:35.545Z,19.60
2022-10-31T12:23:08.187Z,19.70
2022-10-31T12:25:41.444Z,20.00
2022-10-31T12:28:16.958Z,20.30
2022-10-31T12:30:50.445Z,20.50
2022-10-31T12:33:28.797Z,20.90
2022-10-31T12:36:01.460Z,21.10
2022-10-31T12:38:37.762Z,21.50
2022-10-31T12:41:12.303Z,21.60
2022-10-31T12:43:44.792Z,22.00
2022-10-31T12:46:15.581Z,22.10
2022-10-31T12:48:57.243Z,22.10
2022-10-31T12:51:31.168Z,22.00
2022-10-31T12:54:10.968Z,21.90
2022-10-31T12:56:43.542Z,21.70
2022-10-31T12:59:15.245Z,21.60
2022-10-31T13:01:48.432Z,21.50
2022-10-31T13:04:18.667Z,21.60
2022-10-31T13:06:49.422Z,21.50
2022-10-31T13:09:19.983Z,21.40
2022-10-31T13:11:49.773Z,21.10
2022-10-31T13:14:22.025Z,20.70
2022-10-31T13:16:50.010Z,20.50
2022-10-31T13:19:18.969Z,20.30
2022-10-31T13:21:52.431Z,20.10
2022-10-31T13:24:24.189Z,20.00
2022-10-31T13:26:54.033Z,19.90
2022-10-31T13:29:27.024Z,19.70
2022-10-31T13:31:57.590Z,19.50
2022-10-31T13:34:27.704Z,19.50
2022-10-31T13:37:03.844Z,19.40
2022-10-31T13:39:37.035Z,19.40
2022-10-31T13:42:06.730Z,19.30
2022-10-31T13:44:38.669Z,19.40
2022-10-31T13:47:22.322Z,19.40
2022-10-31T13:49:49.929Z,19.40
2022-10-31T13:52:18.773Z,19.30
2022-10-31T13:54:48.569Z,19.20
2022-10-31T13:57:20.361Z,19.20
2022-10-31T13:59:52.434Z,19.00
2022-10-31T14:02:23.882Z,19.00
2022-10-31T14:07:23.711Z,18.90
2022-10-31T14:09:56.335Z,18.80
2022-10-31T14:12:26.467Z,18.70
2022-10-31T14:14:57.211Z,18.60
2022-10-31T14:17:25.930Z,18.60
2022-10-31T14:20:05.173Z,18.50
2022-10-31T14:22:34.606Z,18.60
2022-10-31T14:25:20.007Z,18.60
2022-10-31T14:27:49.062Z,18.60
2022-10-31T14:30:18.026Z,18.70
2022-10-31T14:32:45.935Z,18.80
2022-10-31T14:35:21.190Z,18.90
2022-10-31T14:37:58.580Z,19.00
2022-10-31T14:40:29.033Z,19.10
2022-10-31T14:43:06.338Z,19.20
2022-10-31T14:45:39.268Z,19.20
2022-10-31T14:48:13.560Z,19.30
2022-10-31T14:50:47.632Z,19.30
2022-10-31T14:53:18.260Z,19.40
2022-10-31T14:55:47.742Z,19.40
2022-10-31T14:58:19.536Z,19.40
2022-10-31T15:00:47.330Z,19.40
2022-10-31T15:03:17.166Z,19.40
2022-10-31T15:05:47.342Z,19.20
2022-10-31T15:08:16.232Z,19.20
2022-10-31T15:10:46.622Z,19.10
2022-10-31T15:13:19.694Z,19.00
2022-10-31T15:15:51.998Z,19.00
2022-10-31T15:18:22.301Z,18.90
2022-10-31T15:20:50.155Z,18.80
2022-10-31T15:23:18.828Z,18.70
2022-10-31T15:25:46.542Z,18.60
2022-10-31T15:28:15.081Z,18.50
2022-10-31T15:30:51.538Z,18.50
2022-10-31T15:33:21.482Z,18.30
2022-10-31T15:35:56.682Z,18.20
2022-10-31T15:38:25.097Z,18.20
2022-10-31T15:40:54.880Z,18.20
2022-10-31T15:43:22.947Z,18.10
2022-10-31T15:45:52.202Z,18.10
2022-10-31T15:48:20.736Z,18.00
2022-10-31T15:50:50.261Z,17.90
2022-10-31T15:53:20.206Z,17.90
2022-10-31T15:55:50.144Z,17.80
2022-10-31T15:58:18.782Z,17.60
2022-10-31T16:00:46.777Z,17.50
2022-10-31T16:03:25.575Z,17.40
2022-10-31T16:05:54.191Z,17.30
2022-10-31T16:08:26.105Z,17.10
2022-10-31T16:10:54.065Z,17.00
2022-10-31T16:13:25.250Z,16.80
2022-10-31T16:16:08.926Z,16.70
2022-10-31T16:18:44.174Z,16.60
2022-10-31T16:21:12.556Z,16.50
2022-10-31T16:23:41.585Z,16.50
2022-10-31T16:26:10.267Z,16.40
2022-10-31T16:28:39.746Z,16.30
2022-10-31T16:31:14.849Z,16.20
2022-10-31T16:33:44.944Z,16.20
2022-10-31T16:36:35.378Z,16.20
2022-10-31T16:39:04.299Z,16.20
2022-10-31T16:41:31.999Z,16.10
2022-10-31T16:43:59.763Z,16.00
2022-10-31T16:46:28.418Z,15.90
2022-10-31T16:48:57.430Z,16.00
2022-10-31T16:51:25.118Z,15.90
2022-10-31T16:53:53.467Z,16.00
2022-10-31T16:56:23.920Z,16.00
2022-10-31T16:58:51.798Z,16.00
2022-10-31T17:01:19.556Z,16.00
2022-10-31T17:03:47.562Z,16.10
2022-10-31T17:06:16.781Z,16.10
2022-10-31T17:08:44.463Z,16.10
2022-10-31T17:11:16.256Z,16.10
2022-10-31T17:13:43.901Z,16.10
2022-10-31T17:16:13.651Z,16.10
2022-10-31T17:18:41.332Z,16.10
2022-10-31T17:21:14.333Z,16.00
2022-10-31T17:23:44.826Z,16.00
2022-10-31T17:26:12.507Z,15.90
2022-10-31T17:28:40.295Z,15.90
2022-10-31T17:31:08.193Z,16.00
2022-10-31T17:33:35.859Z,15.90
2022-10-31T17:36:04.234Z,16.00
2022-10-31T17:38:35.125Z,16.00
2022-10-31T17:41:10.880Z,16.00
2022-10-31T17:43:39.196Z,15.90
2022-10-31T17:46:07.197Z,15.70
2022-10-31T17:48:35.377Z,15.60
2022-10-31T17:51:03.049Z,15.60
2022-10-31T17:53:31.369Z,15.60
2022-10-31T17:56:02.911Z,15.70
2022-10-31T17:58:32.318Z,15.60
2022-10-31T18:01:00.249Z,15.70
2022-10-31T18:03:28.108Z,15.50
2022-10-31T18:05:56.797Z,15.40
2022-10-31T18:08:28.077Z,15.40
2022-10-31T18:10:56.235Z,15.30
2022-10-31T18:13:24.123Z,15.30
2022-10-31T18:15:53.157Z,15.30
2022-10-31T18:18:21.176Z,15.30
2022-10-31T18:20:48.873Z,15.30
2022-10-31T18:23:16.601Z,15.20
2022-10-31T18:25:44.331Z,15.20
2022-10-31T18:28:12.019Z,15.10
2022-10-31T18:30:40.549Z,15.10
2022-10-31T18:33:12.812Z,15.10
2022-10-31T18:35:40.678Z,15.10
2022-10-31T18:38:09.134Z,15.00
2022-10-31T18:40:37.250Z,15.00
2022-10-31T18:43:07.313Z,15.00
2022-10-31T18:45:46.390Z,15.00
2022-10-31T18:48:17.527Z,15.10
2022-10-31T18:50:45.460Z,15.10
2022-10-31T18:53:13.130Z,15.20
2022-10-31T18:55:44.142Z,15.20
2022-10-31T18:58:17.029Z,15.20
2022-10-31T19:00:44.812Z,15.30
2022-10-31T19:03:12.603Z,15.20
2022-10-31T19:05:41.622Z,15.20
2022-10-31T19:08:09.311Z,15.00
2022-10-31T19:10:37.579Z,15.00
2022-10-31T19:13:05.698Z,15.00
2022-10-31T19:15:34.605Z,15.00
2022-10-31T19:18:02.363Z,14.90
2022-10-31T19:20:30.657Z,14.90
2022-10-31T19:23:00.109Z,14.80
2022-10-31T19:25:28.076Z,14.80
2022-10-31T19:27:55.802Z,14.80
2022-10-31T19:30:23.509Z,14.80
2022-10-31T19:32:54.637Z,14.70
2022-10-31T19:35:22.372Z,14.80
2022-10-31T19:37:50.108Z,14.70
2022-10-31T19:40:19.532Z,14.80
2022-10-31T19:42:47.266Z,14.80
2022-10-31T19:45:15.108Z,14.70
2022-10-31T19:47:42.804Z,14.70
2022-10-31T19:50:10.961Z,14.70
2022-10-31T19:52:38.661Z,14.80
2022-10-31T19:55:06.768Z,14.70
2022-10-31T19:57:56.563Z,14.70
2022-10-31T20:00:24.772Z,14.70
2022-10-31T20:02:52.498Z,14.70
2022-10-31T20:05:20.169Z,14.70
2022-10-31T20:07:47.865Z,14.80
2022-10-31T20:10:15.546Z,14.90
2022-10-31T20:12:44.545Z,15.00
2022-10-31T20:15:12.269Z,15.00
2022-10-31T20:17:39.957Z,15.10
2022-10-31T20:20:08.937Z,15.10
2022-10-31T20:22:37.225Z,15.10
2022-10-31T20:25:05.496Z,15.10
2022-10-31T20:27:33.200Z,15.10
2022-10-31T20:30:02.219Z,15.10
2022-10-31T20:32:29.893Z,15.10
2022-10-31T20:34:57.531Z,15.00
2022-10-31T20:37:25.485Z,15.00
2022-10-31T20:39:55.765Z,14.90
2022-10-31T20:42:24.436Z,14.90
2022-10-31T20:44:52.198Z,14.90
2022-10-31T20:47:24.922Z,14.90
2022-10-31T20:49:53.659Z,14.90
2022-10-31T20:52:21.336Z,14.80
2022-10-31T20:54:49.009Z,14.80
2022-10-31T20:57:16.902Z,14.70
2022-10-31T20:59:44.594Z,14.70
2022-10-31T21:02:12.593Z,14.60
2022-10-31T21:04:41.745Z,14.60
2022-10-31T21:07:09.625Z,14.50
2022-10-31T21:09:37.422Z,14.50
2022-10-31T21:12:05.751Z,14.40
2022-10-31T21:14:33.431Z,14.40
2022-10-31T21:17:01.166Z,14.40
2022-10-31T21:19:29.217Z,14.30
2022-10-31T21:21:58.254Z,14.20
2022-10-31T21:24:27.847Z,14.20
2022-10-31T21:26:55.872Z,14.10
2022-10-31T21:29:23.665Z,14.10
2022-10-31T21:31:51.389Z,14.10
2022-10-31T21:34:19.076Z,14.10
2022-10-31T21:36:46.746Z,14.10
2022-10-31T21:39:15.754Z,14.10
2022-10-31T21:41:44.372Z,14.10
2022-10-31T21:44:12.045Z,14.00
2022-10-31T21:46:44.301Z,13.90
2022-10-31T21:49:12.201Z,13.90
2022-10-31T21:51:40.812Z,13.90
2022-10-31T21:54:30.205Z,13.90
2022-10-31T21:56:59.970Z,13.90
2022-10-31T21:59:27.675Z,13.80
2022-10-31T22:01:58.025Z,13.80
2022-10-31T22:04:25.786Z,13.80
2022-10-31T22:06:53.589Z,13.80
2022-10-31T22:09:23.214Z,13.80
2022-10-31T22:11:51.057Z,13.80
2022-10-31T22:14:20.070Z,13.80
2022-10-31T22:16:55.283Z,13.80
2022-10-31T22:19:22.978Z,13.80
2022-10-31T22:21:50.708Z,13.80
2022-10-31T22:24:18.847Z,13.80
2022-10-31T22:26:46.568Z,13.80
2022-10-31T22:29:15.337Z,13.70
2022-10-31T22:31:47.659Z,13.70
2022-10-31T22:34:18.844Z,13.70
2022-10-31T22:36:46.851Z,13.60
2022-10-31T22:39:21.505Z,13.60
2022-10-31T22:41:49.357Z,13.60
2022-10-31T22:44:17.031Z,13.60
2022-10-31T22:46:46.065Z,13.60
2022-10-31T22:49:15.636Z,13.60
2022-10-31T22:51:44.043Z,13.60
2022-10-31T22:54:13.135Z,13.60
2022-10-31T22:56:40.886Z,13.70
2022-10-31T22:59:08.632Z,13.70
2022-10-31T23:01:36.481Z,13.80
2022-10-31T23:04:05.644Z,13.80
2022-10-31T23:06:36.096Z,13.80
2022-10-31T23:09:05.073Z,13.80
2022-10-31T23:11:34.181Z,13.90
2022-10-31T23:14:13.374Z,13.80
2022-10-31T23:16:45.719Z,13.90
2022-10-31T23:19:16.014Z,13.90
2022-10-31T23:21:54.716Z,14.00
2022-10-31T23:24:23.937Z,14.00
2022-10-31T23:27:09.140Z,13.90
2022-10-31T23:29:41.432Z,13.90
2022-10-31T23:32:10.110Z,13.90
2022-10-31T23:34:39.148Z,13.90
2022-10-31T23:39:35.773Z,13.90
2022-10-31T23:42:03.800Z,13.90
2022-10-31T23:44:31.574Z,14.00
2022-10-31T23:46:59.514Z,14.00
2022-10-31T23:49:27.215Z,14.00
2022-10-31T23:51:56.749Z,14.00
2022-10-31T23:54:24.940Z,14.00
2022-10-31T23:56:52.619Z,14.00
2022-10-31T23:59:30.220Z,14.10
